| time (UTC) | temp F | wind direction | speed knots | gust knots | rain 1hr in | rain 24hr in | rain mn in | humidity % | barometer mb |
| 20260507043316 | 41 | 151 | 0.9 | 0.9 | 0.00 | 0.00 | 0.00 | 99 | 1019.7 |
| 20260507042813 | 41 | 150 | 0.9 | 0.9 | 0.00 | 0.00 | 0.00 | 98 | 1019.8 |
| 20260507042308 | 41 | 153 | 0.9 | 0.9 | 0.00 | 0.00 | 0.00 | 98 | 1019.7 |
| 20260507041806 | 41 | 163 | 1.7 | 1.7 | 0.00 | 0.00 | 0.00 | 98 | 1019.8 |
| 20260507041302 | 41 | 163 | 1.7 | 1.7 | 0.00 | 0.00 | 0.00 | 98 | 1019.8 |
| 20260507040759 | 42 | 153 | 0.9 | 0.9 | 0.00 | 0.00 | 0.00 | 98 | 1019.9 |
| 20260507040255 | 42 | 153 | 0.9 | 0.9 | 0.00 | 0.00 | 0.00 | 98 | 1019.7 |
| 20260507035751 | 42 | 152 | 0.0 | 0.0 | 0.00 | 0.00 | 0.00 | 98 | 1019.9 |
| 20260507035246 | 42 | 154 | 0.0 | 0.9 | 0.00 | 0.00 | 0.00 | 98 | 1019.8 |
| 20260507034744 | 42 | 161 | 0.9 | 0.9 | 0.00 | 0.00 | 0.00 | 98 | 1019.5 |
| 20260507034241 | 42 | 162 | 0.9 | 0.9 | 0.00 | 0.00 | 0.00 | 97 | 1019.7 |
| 20260507033740 | 42 | 166 | 0.9 | 0.9 | 0.00 | 0.00 | 0.00 | 97 | 1019.5 |
| 20260507033237 | 43 | 163 | 1.7 | 1.7 | 0.00 | 0.00 | 0.00 | 97 | 1019.5 |
| 20260507032734 | 43 | 161 | 1.7 | 1.7 | 0.00 | 0.00 | 0.00 | 97 | 1019.5 |
| 20260507032230 | 43 | 148 | 0.9 | 0.9 | 0.00 | 0.00 | 0.00 | 97 | 1019.6 |
| 20260507031727 | 43 | 156 | 0.9 | 0.9 | 0.00 | 0.00 | 0.00 | 96 | 1019.4 |
| 20260507031223 | 43 | 149 | 0.9 | 0.9 | 0.00 | 0.00 | 0.00 | 96 | 1019.4 |
| 20260507030720 | 44 | 159 | 0.9 | 0.9 | 0.00 | 0.00 | 0.00 | 96 | 1019.4 |
| 20260507030218 | 44 | 156 | 1.7 | 1.7 | 0.00 | 0.00 | 0.00 | 96 | 1019.4 |
| 20260507025715 | 44 | 146 | 0.0 | 0.0 | 0.00 | 0.00 | 0.00 | 96 | 1019.5 |
| 20260507025212 | 44 | 147 | 0.0 | 0.9 | 0.00 | 0.00 | 0.00 | 95 | 1019.3 |
| 20260507024710 | 44 | 157 | 0.9 | 0.9 | 0.00 | 0.00 | 0.00 | 95 | 1019.3 |
| 20260507024207 | 45 | 163 | 0.9 | 0.9 | 0.00 | 0.00 | 0.00 | 95 | 1019.0 |
| 20260507023702 | 45 | 155 | 1.7 | 1.7 | 0.00 | 0.00 | 0.00 | 94 | 1018.9 |
| 20260507023200 | 45 | 144 | 0.9 | 0.9 | 0.00 | 0.00 | 0.00 | 94 | 1018.9 |
| 20260507022656 | 45 | 157 | 0.9 | 0.9 | 0.00 | 0.00 | 0.00 | 93 | 1019.0 |
| 20260507022152 | 46 | 158 | 0.9 | 0.9 | 0.00 | 0.00 | 0.00 | 93 | 1018.6 |
| 20260507021649 | 46 | 142 | 0.9 | 0.9 | 0.00 | 0.00 | 0.00 | 92 | 1018.8 |
| 20260507021144 | 46 | 143 | 0.0 | 0.9 | 0.00 | 0.00 | 0.00 | 92 | 1018.9 |
| 20260507020643 | 47 | 143 | 0.0 | 0.0 | 0.00 | 0.00 | 0.00 | 91 | 1018.9 |
| 20260507020138 | 47 | 151 | 0.9 | 0.9 | 0.00 | 0.00 | 0.00 | 91 | 1018.7 |
| 20260507015637 | 48 | 163 | 1.7 | 1.7 | 0.00 | 0.00 | 0.00 | 90 | 1018.6 |
| 20260507015134 | 48 | 159 | 0.9 | 0.9 | 0.00 | 0.00 | 0.00 | 89 | 1018.5 |
| 20260507014631 | 48 | 160 | 0.9 | 0.9 | 0.00 | 0.00 | 0.00 | 88 | 1018.4 |
| 20260507014126 | 49 | 158 | 0.9 | 1.7 | 0.00 | 0.00 | 0.00 | 87 | 1018.6 |
| 20260507013624 | 49 | 147 | 0.9 | 0.9 | 0.00 | 0.00 | 0.00 | 85 | 1018.4 |
| 20260507013120 | 50 | 164 | 0.9 | 1.7 | 0.00 | 0.00 | 0.00 | 84 | 1018.3 |
| 20260507012618 | 50 | 150 | 0.9 | 0.9 | 0.00 | 0.00 | 0.00 | 83 | 1018.4 |
| 20260507012113 | 51 | 133 | 0.9 | 0.9 | 0.00 | 0.00 | 0.00 | 82 | 1018.2 |
| 20260507011612 | 51 | 136 | 0.9 | 1.7 | 0.00 | 0.00 | 0.00 | 80 | 1018.3 |
| 20260507011108 | 52 | 74 | 0.9 | 1.7 | 0.00 | 0.00 | 0.00 | 78 | 1018.3 |
| 20260507010603 | 53 | 50 | 0.9 | 0.9 | 0.00 | 0.00 | 0.00 | 76 | 1018.0 |
| 20260507010058 | 53 | 63 | 0.9 | 0.9 | 0.00 | 0.00 | 0.00 | 74 | 1018.1 |
| 20260507005556 | 54 | 55 | 0.9 | 0.9 | 0.00 | 0.00 | 0.00 | 73 | 1018.1 |
| 20260507005052 | 55 | 57 | 0.9 | 0.9 | 0.00 | 0.00 | 0.00 | 71 | 1017.9 |
| 20260507004549 | 56 | 44 | 0.9 | 0.9 | 0.00 | 0.00 | 0.00 | 70 | 1017.8 |
| 20260507004047 | 57 | 348 | 0.0 | 0.0 | 0.00 | 0.00 | 0.00 | 67 | 1017.7 |
| 20260507003542 | 57 | 347 | 0.9 | 0.9 | 0.00 | 0.00 | 0.00 | 62 | 1017.9 |
| 20260507003038 | 58 | 343 | 0.0 | 0.9 | 0.00 | 0.00 | 0.00 | 59 | 1017.7 |
| 20260507002535 | 58 | 299 | 0.9 | 0.9 | 0.00 | 0.00 | 0.00 | 55 | 1017.7 |
| 20260507002030 | 59 | 320 | 0.9 | 0.9 | 0.00 | 0.00 | 0.00 | 54 | 1017.4 |
| 20260507001527 | 59 | 325 | 0.0 | 0.0 | 0.00 | 0.00 | 0.00 | 53 | 1017.6 |
| 20260507001025 | 60 | 292 | 1.7 | 2.6 | 0.00 | 0.00 | 0.00 | 52 | 1017.7 |
| 20260507000521 | 61 | 350 | 3.5 | 4.3 | 0.00 | 0.00 | 0.00 | 51 | 1017.7 |
| 20260507000016 | 61 | 338 | 0.9 | 0.9 | 0.00 | 0.00 | 0.00 | 53 | 1017.5 |
| 20260506235514 | 61 | 352 | 0.9 | 1.7 | 0.00 | 0.00 | 0.00 | 52 | 1017.4 |
| 20260506235009 | 61 | 334 | 0.9 | 0.9 | 0.00 | 0.00 | 0.00 | 53 | 1017.3 |
| 20260506234507 | 61 | 325 | 2.6 | 2.6 | 0.00 | 0.00 | 0.00 | 54 | 1017.5 |
| 20260506234004 | 60 | 282 | 2.6 | 2.6 | 0.00 | 0.00 | 0.00 | 53 | 1017.5 |
| 20260506233500 | 60 | 358 | 1.7 | 1.7 | 0.00 | 0.00 | 0.00 | 53 | 1017.5 |
| 20260506232957 | 60 | 312 | 4.3 | 5.2 | 0.00 | 0.00 | 0.00 | 54 | 1017.6 |
| 20260506232454 | 60 | 324 | 2.6 | 4.3 | 0.00 | 0.00 | 0.00 | 53 | 1017.3 |
| 20260506231949 | 60 | 319 | 2.6 | 2.6 | 0.00 | 0.00 | 0.00 | 55 | 1017.3 |
| 20260506231447 | 60 | 301 | 4.3 | 4.3 | 0.00 | 0.00 | 0.00 | 53 | 1017.2 |
| 20260506230944 | 60 | 341 | 2.6 | 4.3 | 0.00 | 0.00 | 0.00 | 53 | 1017.2 |
| 20260506230440 | 60 | 337 | 1.7 | 1.7 | 0.00 | 0.00 | 0.00 | 53 | 1017.0 |
| 20260506225937 | 60 | 301 | 5.2 | 7.0 | 0.00 | 0.00 | 0.00 | 52 | 1016.9 |
| 20260506225435 | 61 | 305 | 4.3 | 5.2 | 0.00 | 0.00 | 0.00 | 52 | 1016.6 |
| 20260506224931 | 62 | 306 | 4.3 | 5.2 | 0.00 | 0.00 | 0.00 | 54 | 1016.6 |
| 20260506224429 | 62 | 344 | 0.9 | 0.9 | 0.00 | 0.00 | 0.00 | 52 | 1016.7 |
| 20260506223925 | 62 | 338 | 0.9 | 0.9 | 0.00 | 0.00 | 0.00 | 55 | 1016.6 |
| 20260506223420 | 62 | 320 | 2.6 | 5.2 | 0.00 | 0.00 | 0.00 | 55 | 1016.8 |
| 20260506222918 | 61 | 179 | 3.5 | 4.3 | 0.00 | 0.00 | 0.00 | 54 | 1016.4 |
| 20260506222414 | 62 | 342 | 0.9 | 1.7 | 0.00 | 0.00 | 0.00 | 54 | 1016.4 |
| 20260506221911 | 62 | 205 | 0.9 | 0.9 | 0.00 | 0.00 | 0.00 | 54 | 1016.6 |
| 20260506221408 | 63 | 354 | 0.9 | 0.9 | 0.00 | 0.00 | 0.00 | 55 | 1016.5 |
| 20260506220906 | 63 | 285 | 2.6 | 2.6 | 0.00 | 0.00 | 0.00 | 53 | 1016.6 |
| 20260506220401 | 63 | 109 | 0.9 | 1.7 | 0.00 | 0.00 | 0.00 | 53 | 1016.5 |
| 20260506215858 | 63 | 5 | 0.9 | 1.7 | 0.00 | 0.00 | 0.00 | 55 | 1016.7 |
| 20260506215354 | 63 | 35 | 1.7 | 1.7 | 0.00 | 0.00 | 0.00 | 54 | 1016.7 |
| 20260506214850 | 63 | 314 | 4.3 | 6.1 | 0.00 | 0.00 | 0.00 | 56 | 1016.7 |
| 20260506214347 | 63 | 17 | 2.6 | 2.6 | 0.00 | 0.00 | 0.00 | 56 | 1016.7 |
| 20260506213845 | 62 | 31 | 0.0 | 0.9 | 0.00 | 0.00 | 0.00 | 56 | 1016.9 |
| 20260506213342 | 62 | 262 | 2.6 | 2.6 | 0.00 | 0.00 | 0.00 | 54 | 1017.1 |
| 20260506212839 | 63 | 244 | 2.6 | 4.3 | 0.00 | 0.00 | 0.00 | 53 | 1016.8 |
| 20260506212336 | 62 | 289 | 1.7 | 1.7 | 0.00 | 0.00 | 0.00 | 57 | 1016.7 |
| 20260506211830 | 62 | 320 | 1.7 | 2.6 | 0.00 | 0.00 | 0.00 | 54 | 1017.0 |
| 20260506211327 | 63 | 297 | 3.5 | 4.3 | 0.00 | 0.00 | 0.00 | 55 | 1017.2 |
| 20260506210824 | 62 | 354 | 6.1 | 7.0 | 0.00 | 0.00 | 0.00 | 56 | 1016.9 |
| 20260506210321 | 61 | 321 | 4.3 | 5.2 | 0.00 | 0.00 | 0.00 | 58 | 1017.1 |
| 20260506205818 | 62 | 301 | 1.7 | 1.7 | 0.00 | 0.00 | 0.00 | 57 | 1017.2 |
| 20260506205314 | 62 | 310 | 7.8 | 8.7 | 0.00 | 0.00 | 0.00 | 55 | 1017.3 |
| 20260506204810 | 63 | 21 | 0.9 | 0.9 | 0.00 | 0.00 | 0.00 | 57 | 1017.0 |
| 20260506204308 | 61 | 125 | 2.6 | 2.6 | 0.00 | 0.00 | 0.00 | 59 | 1017.2 |
| 20260506203806 | 62 | 9 | 2.6 | 2.6 | 0.00 | 0.00 | 0.00 | 58 | 1017.4 |
| 20260506203303 | 62 | 214 | 2.6 | 2.6 | 0.00 | 0.00 | 0.00 | 56 | 1017.6 |
| 20260506202800 | 62 | 157 | 1.7 | 1.7 | 0.00 | 0.00 | 0.00 | 60 | 1017.4 |
| 20260506202257 | 62 | 334 | 4.3 | 5.2 | 0.00 | 0.00 | 0.00 | 59 | 1017.7 |
| 20260506201753 | 61 | 79 | 2.6 | 4.3 | 0.00 | 0.00 | 0.00 | 60 | 1017.9 |
| 20260506201250 | 62 | 338 | 3.5 | 4.3 | 0.00 | 0.00 | 0.00 | 60 | 1017.6 |
| 20260506200747 | 60 | 342 | 0.0 | 0.0 | 0.00 | 0.00 | 0.00 | 61 | 1017.7 |
| 20260506200243 | 60 | 333 | 0.9 | 0.9 | 0.00 | 0.00 | 0.00 | 61 | 1017.9 |
| 20260506195740 | 60 | 316 | 0.9 | 1.7 | 0.00 | 0.00 | 0.00 | 61 | 1017.7 |
| 20260506195236 | 61 | 29 | 2.6 | 4.3 | 0.00 | 0.00 | 0.00 | 59 | 1018.1 |
| 20260506194734 | 60 | 6 | 0.9 | 1.7 | 0.00 | 0.00 | 0.00 | 63 | 1017.7 |
| 20260506194230 | 59 | 275 | 2.6 | 2.6 | 0.00 | 0.00 | 0.00 | 65 | 1018.2 |
| 20260506193728 | 59 | 309 | 5.2 | 7.0 | 0.00 | 0.00 | 0.00 | 61 | 1018.0 |
| 20260506193225 | 59 | 334 | 4.3 | 5.2 | 0.00 | 0.00 | 0.00 | 64 | 1017.9 |
| 20260506192721 | 60 | 6 | 3.5 | 4.3 | 0.00 | 0.00 | 0.00 | 62 | 1018.0 |
| 20260506192218 | 59 | 119 | 1.7 | 2.6 | 0.00 | 0.00 | 0.00 | 62 | 1018.4 |
| 20260506191715 | 59 | 323 | 4.3 | 4.3 | 0.00 | 0.00 | 0.00 | 62 | 1018.0 |
| 20260506191210 | 60 | 350 | 0.9 | 0.9 | 0.00 | 0.00 | 0.00 | 62 | 1018.1 |
| 20260506190708 | 60 | 339 | 3.5 | 4.3 | 0.00 | 0.00 | 0.00 | 62 | 1018.2 |
| 20260506190205 | 60 | 320 | 4.3 | 5.2 | 0.00 | 0.00 | 0.00 | 62 | 1018.1 |
| 20260506185702 | 61 | 26 | 3.5 | 5.2 | 0.00 | 0.00 | 0.00 | 61 | 1018.2 |
| 20260506185158 | 60 | 24 | 1.7 | 1.7 | 0.00 | 0.00 | 0.00 | 61 | 1018.3 |
| 20260506184650 | 60 | 210 | 2.6 | 4.3 | 0.00 | 0.00 | 0.00 | 60 | 1018.0 |
| 20260506184147 | 61 | 333 | 2.6 | 2.6 | 0.00 | 0.00 | 0.00 | 59 | 1018.4 |
| 20260506183644 | 61 | 304 | 7.0 | 8.7 | 0.00 | 0.00 | 0.00 | 58 | 1018.3 |
| 20260506183140 | 61 | 325 | 1.7 | 1.7 | 0.00 | 0.00 | 0.00 | 61 | 1018.4 |
| 20260506182637 | 60 | 295 | 0.9 | 0.9 | 0.00 | 0.00 | 0.00 | 62 | 1018.5 |
| 20260506182134 | 60 | 329 | 5.2 | 6.1 | 0.00 | 0.00 | 0.00 | 61 | 1018.8 |
| 20260506181632 | 59 | 1 | 2.6 | 2.6 | 0.00 | 0.00 | 0.00 | 61 | 1019.1 |
| 20260506181129 | 59 | 311 | 2.6 | 2.6 | 0.00 | 0.00 | 0.00 | 60 | 1019.6 |
| 20260506180626 | 59 | 28 | 3.5 | 6.1 | 0.00 | 0.00 | 0.00 | 62 | 1019.4 |
| 20260506180122 | 59 | 327 | 0.9 | 0.9 | 0.00 | 0.00 | 0.00 | 64 | 1019.5 |
| 20260506175619 | 58 | 306 | 6.1 | 7.0 | 0.00 | 0.00 | 0.00 | 63 | 1019.6 |
| 20260506175114 | 58 | 290 | 2.6 | 2.6 | 0.00 | 0.00 | 0.00 | 64 | 1019.8 |
| 20260506174614 | 59 | 297 | 1.7 | 4.3 | 0.00 | 0.00 | 0.00 | 64 | 1019.9 |
| 20260506174110 | 59 | 68 | 0.9 | 0.9 | 0.00 | 0.00 | 0.00 | 63 | 1019.7 |
| 20260506173608 | 58 | 306 | 0.9 | 1.7 | 0.00 | 0.00 | 0.00 | 62 | 1019.7 |
| 20260506173104 | 58 | 334 | 3.5 | 4.3 | 0.00 | 0.00 | 0.00 | 67 | 1020.1 |
| 20260506172602 | 57 | 6 | 4.3 | 5.2 | 0.00 | 0.00 | 0.00 | 66 | 1019.9 |
| 20260506172057 | 57 | 312 | 5.2 | 7.0 | 0.00 | 0.00 | 0.00 | 66 | 1020.0 |
| 20260506171555 | 57 | 345 | 5.2 | 7.0 | 0.00 | 0.00 | 0.00 | 68 | 1020.0 |
| 20260506171052 | 57 | 311 | 6.1 | 8.7 | 0.00 | 0.00 | 0.00 | 67 | 1019.7 |
| 20260506170544 | 58 | 325 | 2.6 | 2.6 | 0.00 | 0.00 | 0.00 | 67 | 1019.7 |
| 20260506170041 | 57 | 304 | 5.2 | 6.1 | 0.00 | 0.00 | 0.00 | 68 | 1019.8 |
| 20260506165540 | 58 | 337 | 6.1 | 7.0 | 0.00 | 0.00 | 0.00 | 66 | 1019.8 |
| 20260506165036 | 58 | 355 | 4.3 | 5.2 | 0.00 | 0.00 | 0.00 | 66 | 1019.8 |
| 20260506164533 | 57 | 1 | 4.3 | 5.2 | 0.00 | 0.00 | 0.00 | 67 | 1019.6 |
| 20260506164030 | 57 | 320 | 5.2 | 7.0 | 0.00 | 0.00 | 0.00 | 65 | 1019.6 |
| 20260506163526 | 56 | 187 | 0.9 | 0.9 | 0.00 | 0.00 | 0.00 | 68 | 1019.6 |
| 20260506163022 | 56 | 320 | 1.7 | 1.7 | 0.00 | 0.00 | 0.00 | 68 | 1019.4 |
| 20260506162518 | 56 | 339 | 4.3 | 5.2 | 0.00 | 0.00 | 0.00 | 67 | 1019.5 |
| 20260506162015 | 56 | 346 | 6.1 | 7.8 | 0.00 | 0.00 | 0.00 | 65 | 1019.1 |
| 20260506161513 | 56 | 347 | 1.7 | 2.6 | 0.00 | 0.00 | 0.00 | 69 | 1018.8 |
| 20260506161010 | 56 | 313 | 6.1 | 7.0 | 0.00 | 0.00 | 0.00 | 68 | 1018.7 |
| 20260506160508 | 56 | 207 | 1.7 | 2.6 | 0.00 | 0.00 | 0.00 | 70 | 1018.6 |
| 20260506160005 | 56 | 268 | 3.5 | 5.2 | 0.00 | 0.00 | 0.00 | 67 | 1018.6 |
| 20260506155502 | 56 | 295 | 2.6 | 2.6 | 0.00 | 0.00 | 0.00 | 69 | 1018.4 |
| 20260506153634 | 54 | 310 | 2.6 | 4.3 | 0.00 | 0.00 | 0.00 | 73 | 1018.8 |
| 20260506153132 | 53 | 224 | 4.3 | 5.2 | 0.00 | 0.00 | 0.00 | 74 | 1018.9 |
| 20260506152628 | 53 | 321 | 5.2 | 7.0 | 0.00 | 0.00 | 0.00 | 74 | 1018.8 |
| 20260506152126 | 52 | 325 | 3.5 | 4.3 | 0.00 | 0.00 | 0.00 | 75 | 1018.8 |
| 20260506151625 | 52 | 16 | 7.0 | 9.6 | 0.00 | 0.00 | 0.00 | 74 | 1018.4 |
| 20260506151121 | 52 | 241 | 5.2 | 6.1 | 0.00 | 0.00 | 0.00 | 74 | 1018.4 |
| 20260506150618 | 53 | 280 | 2.6 | 5.2 | 0.00 | 0.00 | 0.00 | 75 | 1018.5 |
| 20260506150115 | 53 | 225 | 6.1 | 7.0 | 0.00 | 0.00 | 0.00 | 77 | 1018.4 |
| 20260506145612 | 53 | 302 | 2.6 | 2.6 | 0.00 | 0.00 | 0.00 | 80 | 1018.4 |
| 20260506145109 | 51 | 253 | 3.5 | 5.2 | 0.00 | 0.00 | 0.00 | 79 | 1018.3 |
| 20260506144606 | 51 | 287 | 0.9 | 1.7 | 0.00 | 0.00 | 0.00 | 80 | 1018.7 |
| 20260506144102 | 51 | 342 | 2.6 | 2.6 | 0.00 | 0.00 | 0.00 | 81 | 1018.7 |
| 20260506143601 | 50 | 49 | 0.9 | 0.9 | 0.00 | 0.00 | 0.00 | 81 | 1018.8 |
| 20260506143058 | 50 | 344 | 0.9 | 0.9 | 0.00 | 0.00 | 0.00 | 81 | 1018.8 |
| 20260506142556 | 50 | 323 | 0.0 | 0.9 | 0.00 | 0.00 | 0.00 | 82 | 1018.7 |
| 20260506142054 | 50 | 316 | 1.7 | 2.6 | 0.00 | 0.00 | 0.00 | 82 | 1018.8 |
| 20260506141551 | 49 | 283 | 1.7 | 2.6 | 0.00 | 0.00 | 0.00 | 82 | 1018.9 |
| 20260506141050 | 50 | 344 | 1.7 | 2.6 | 0.00 | 0.00 | 0.00 | 84 | 1018.7 |
| 20260506140547 | 50 | 59 | 0.9 | 0.9 | 0.00 | 0.00 | 0.00 | 84 | 1018.9 |
| 20260506140044 | 50 | 332 | 1.7 | 1.7 | 0.00 | 0.00 | 0.00 | 85 | 1018.6 |
| 20260506135541 | 49 | 61 | 0.9 | 0.9 | 0.00 | 0.00 | 0.00 | 84 | 1018.8 |
| 20260506135037 | 49 | 282 | 4.3 | 6.1 | 0.00 | 0.00 | 0.00 | 85 | 1018.8 |
| 20260506134534 | 49 | 315 | 6.1 | 7.8 | 0.00 | 0.00 | 0.00 | 85 | 1018.7 |
| 20260506134029 | 49 | 211 | 4.3 | 7.0 | 0.00 | 0.00 | 0.00 | 87 | 1018.2 |
| 20260506133527 | 48 | 249 | 0.9 | 4.3 | 0.00 | 0.00 | 0.00 | 87 | 1018.8 |
| 20260506133024 | 48 | 324 | 2.6 | 4.3 | 0.00 | 0.00 | 0.00 | 87 | 1019.1 |
| 20260506132521 | 48 | 316 | 5.2 | 6.1 | 0.00 | 0.00 | 0.00 | 88 | 1019.0 |
| 20260506132018 | 48 | 170 | 3.5 | 6.1 | 0.00 | 0.00 | 0.00 | 88 | 1018.7 |
| 20260506131515 | 48 | 9 | 0.9 | 1.7 | 0.00 | 0.00 | 0.00 | 89 | 1018.8 |
| 20260506131012 | 48 | 357 | 2.6 | 4.3 | 0.00 | 0.00 | 0.00 | 90 | 1018.2 |
| 20260506130508 | 48 | 348 | 2.6 | 2.6 | 0.00 | 0.00 | 0.00 | 90 | 1018.4 |
| 20260506130006 | 47 | 26 | 1.7 | 2.6 | 0.00 | 0.00 | 0.00 | 91 | 1018.4 |
| 20260506125504 | 47 | 307 | 1.7 | 1.7 | 0.00 | 0.00 | 0.00 | 91 | 1018.5 |
| 20260506125001 | 47 | 324 | 4.3 | 6.1 | 0.00 | 0.00 | 0.00 | 91 | 1018.1 |
| 20260506124459 | 47 | 294 | 2.6 | 2.6 | 0.00 | 0.00 | 0.00 | 91 | 1017.9 |
| 20260506123957 | 47 | 297 | 2.6 | 2.6 | 0.00 | 0.00 | 0.00 | 92 | 1017.8 |
| 20260506123454 | 47 | 2 | 1.7 | 1.7 | 0.00 | 0.00 | 0.00 | 92 | 1018.1 |
| 20260506122952 | 46 | 351 | 0.9 | 0.9 | 0.00 | 0.00 | 0.00 | 92 | 1018.2 |
| 20260506122449 | 46 | 293 | 5.2 | 6.1 | 0.00 | 0.00 | 0.00 | 93 | 1018.2 |
| 20260506121947 | 46 | 322 | 2.6 | 2.6 | 0.00 | 0.00 | 0.00 | 93 | 1018.2 |
| 20260506121444 | 46 | 344 | 2.6 | 2.6 | 0.00 | 0.00 | 0.00 | 93 | 1018.3 |
| 20260506120940 | 46 | 334 | 1.7 | 1.7 | 0.00 | 0.00 | 0.00 | 93 | 1018.3 |
| 20260506120438 | 46 | 313 | 5.2 | 7.0 | 0.00 | 0.00 | 0.00 | 93 | 1018.0 |
| 20260506115935 | 46 | 322 | 3.5 | 4.3 | 0.00 | 0.00 | 0.00 | 93 | 1018.0 |
| 20260506115433 | 46 | 335 | 3.5 | 4.3 | 0.00 | 0.00 | 0.00 | 93 | 1017.8 |
| 20260506114931 | 46 | 308 | 2.6 | 4.3 | 0.00 | 0.00 | 0.00 | 93 | 1017.9 |
| 20260506114428 | 46 | 327 | 4.3 | 4.3 | 0.00 | 0.00 | 0.00 | 94 | 1017.7 |
| 20260506113927 | 46 | 357 | 0.9 | 1.7 | 0.00 | 0.00 | 0.00 | 93 | 1018.1 |
| 20260506113424 | 46 | 346 | 0.0 | 0.0 | 0.00 | 0.00 | 0.00 | 93 | 1017.9 |
| 20260506112915 | 46 | 333 | 1.7 | 2.6 | 0.00 | 0.00 | 0.00 | 93 | 1017.9 |
| 20260506112413 | 46 | 338 | 0.9 | 1.7 | 0.00 | 0.00 | 0.00 | 93 | 1017.7 |
| 20260506111910 | 46 | 311 | 2.6 | 2.6 | 0.00 | 0.00 | 0.00 | 93 | 1017.5 |
| 20260506111408 | 46 | 326 | 1.7 | 1.7 | 0.00 | 0.00 | 0.00 | 93 | 1017.6 |
| 20260506110905 | 46 | 327 | 0.9 | 1.7 | 0.00 | 0.00 | 0.00 | 93 | 1017.5 |
| 20260506110402 | 46 | 335 | 2.6 | 2.6 | 0.00 | 0.00 | 0.00 | 93 | 1017.6 |
| 20260506105859 | 46 | 323 | 2.6 | 2.6 | 0.00 | 0.00 | 0.00 | 94 | 1017.2 |
| 20260506105355 | 46 | 332 | 1.7 | 1.7 | 0.00 | 0.00 | 0.00 | 94 | 1017.2 |
| 20260506104853 | 46 | 346 | 0.9 | 0.9 | 0.00 | 0.00 | 0.00 | 94 | 1017.0 |
| 20260506104350 | 46 | 337 | 1.7 | 1.7 | 0.00 | 0.00 | 0.00 | 94 | 1016.7 |
| 20260506103848 | 46 | 344 | 0.0 | 0.9 | 0.00 | 0.00 | 0.00 | 94 | 1016.7 |
| 20260506103345 | 46 | 331 | 2.6 | 2.6 | 0.00 | 0.00 | 0.00 | 94 | 1016.7 |
| 20260506102842 | 46 | 347 | 0.9 | 0.9 | 0.00 | 0.00 | 0.00 | 94 | 1016.8 |
| 20260506102340 | 46 | 320 | 2.6 | 2.6 | 0.00 | 0.00 | 0.00 | 94 | 1016.4 |
| 20260506101837 | 46 | 358 | 0.0 | 0.0 | 0.00 | 0.00 | 0.00 | 94 | 1016.4 |
| 20260506101333 | 46 | 331 | 1.7 | 1.7 | 0.00 | 0.00 | 0.00 | 94 | 1016.2 |
| 20260506100831 | 46 | 350 | 2.6 | 2.6 | 0.00 | 0.00 | 0.00 | 94 | 1015.8 |
| 20260506100329 | 46 | 346 | 0.0 | 0.0 | 0.00 | 0.00 | 0.00 | 94 | 1015.7 |
| 20260506095827 | 46 | 341 | 0.9 | 1.7 | 0.00 | 0.00 | 0.00 | 94 | 1015.6 |
| 20260506095324 | 46 | 344 | 1.7 | 2.6 | 0.00 | 0.00 | 0.00 | 94 | 1015.7 |
| 20260506094821 | 46 | 348 | 0.9 | 1.7 | 0.00 | 0.00 | 0.00 | 94 | 1015.4 |
| 20260506094320 | 46 | 334 | 1.7 | 1.7 | 0.00 | 0.00 | 0.00 | 94 | 1015.1 |
| 20260506093818 | 46 | 341 | 0.9 | 0.9 | 0.00 | 0.00 | 0.00 | 95 | 1015.2 |
| 20260506093314 | 46 | 339 | 0.0 | 0.9 | 0.00 | 0.00 | 0.00 | 95 | 1015.1 |
| 20260506092812 | 46 | 339 | 0.9 | 0.9 | 0.00 | 0.00 | 0.00 | 95 | 1015.2 |
| 20260506092310 | 45 | 304 | 0.9 | 0.9 | 0.00 | 0.00 | 0.00 | 95 | 1014.8 |
| 20260506091807 | 46 | 320 | 0.0 | 0.9 | 0.00 | 0.00 | 0.00 | 95 | 1014.7 |
| 20260506091304 | 46 | 336 | 0.0 | 0.9 | 0.00 | 0.00 | 0.00 | 96 | 1015.0 |
| 20260506090802 | 46 | 323 | 0.0 | 0.9 | 0.00 | 0.00 | 0.00 | 96 | 1014.7 |
| 20260506090259 | 46 | 321 | 0.0 | 0.0 | 0.00 | 0.00 | 0.00 | 96 | 1014.5 |
| 20260506085755 | 46 | 305 | 0.9 | 0.9 | 0.00 | 0.00 | 0.00 | 96 | 1014.6 |
| 20260506085252 | 46 | 259 | 0.9 | 0.9 | 0.00 | 0.00 | 0.00 | 96 | 1014.6 |
| 20260506084748 | 46 | 313 | 0.9 | 0.9 | 0.00 | 0.00 | 0.00 | 96 | 1014.8 |
| 20260506084245 | 46 | 324 | 0.9 | 0.9 | 0.00 | 0.00 | 0.00 | 97 | 1014.6 |
| 20260506083742 | 46 | 351 | 0.0 | 0.0 | 0.00 | 0.00 | 0.00 | 96 | 1014.7 |
| 20260506083240 | 46 | 349 | 0.9 | 0.9 | 0.00 | 0.00 | 0.00 | 97 | 1015.0 |
| 20260506082737 | 46 | 348 | 0.0 | 0.9 | 0.00 | 0.00 | 0.00 | 97 | 1014.7 |
| 20260506082232 | 46 | 332 | 0.9 | 1.7 | 0.00 | 0.00 | 0.00 | 97 | 1014.6 |
| 20260506081730 | 46 | 350 | 0.9 | 0.9 | 0.00 | 0.00 | 0.00 | 97 | 1014.8 |
| 20260506081227 | 46 | 340 | 0.9 | 1.7 | 0.00 | 0.00 | 0.00 | 97 | 1014.6 |
| 20260506080726 | 46 | 331 | 0.0 | 0.0 | 0.00 | 0.00 | 0.00 | 96 | 1014.6 |
| 20260506080221 | 46 | 339 | 0.0 | 0.9 | 0.00 | 0.00 | 0.00 | 97 | 1014.3 |
| 20260506073206 | 45 | 222 | 1.7 | 1.7 | 0.00 | 0.00 | 0.00 | 98 | 1013.4 |
| 20260506072702 | 46 | 285 | 0.0 | 0.0 | 0.00 | 0.00 | 0.00 | 98 | 1013.7 |
| 20260506072200 | 46 | 29 | 0.9 | 1.7 | 0.00 | 0.00 | 0.00 | 99 | 1013.7 |
| 20260506071657 | 46 | 275 | 1.7 | 1.7 | 0.00 | 0.00 | 0.00 | 99 | 1013.4 |
| 20260506071155 | 46 | 284 | 2.6 | 2.6 | 0.00 | 0.00 | 0.00 | 99 | 1013.8 |
| 20260506070652 | 46 | 261 | 3.5 | 4.3 | 0.00 | 0.00 | 0.00 | 99 | 1013.9 |
| 20260506070148 | 46 | 308 | 0.9 | 1.7 | 0.00 | 0.00 | 0.00 | 99 | 1014.1 |
| 20260506062126 | 46 | 326 | 3.5 | 5.2 | 0.00 | 0.00 | 0.00 | 99 | 1014.3 |
| 20260506061621 | 46 | 319 | 4.3 | 7.0 | 0.00 | 0.00 | 0.00 | 99 | 1014.2 |
| 20260506061120 | 46 | 314 | 3.5 | 5.2 | 0.00 | 0.00 | 0.00 | 99 | 1014.3 |
| 20260506060618 | 46 | 335 | 3.5 | 4.3 | 0.00 | 0.00 | 0.00 | 99 | 1013.9 |
| 20260506060114 | 46 | 9 | 2.6 | 2.6 | 0.00 | 0.00 | 0.00 | 99 | 1014.2 |
| 20260506051046 | 46 | 321 | 3.5 | 4.3 | 0.00 | 0.00 | 0.00 | 99 | 1014.8 |
| 20260506050544 | 46 | 30 | 0.9 | 1.7 | 0.00 | 0.00 | 0.00 | 99 | 1014.6 |
| 20260506045035 | 46 | 309 | 0.9 | 0.9 | 0.00 | 0.00 | 0.00 | 99 | 1014.3 |
| 20260506044533 | 46 | 341 | 0.9 | 0.9 | 0.00 | 0.00 | 0.00 | 99 | 1014.4 |
| 20260506044029 | 46 | 332 | 2.6 | 2.6 | 0.00 | 0.00 | 0.00 | 99 | 1014.3 |
| 20260506043526 | 46 | 332 | 2.6 | 2.6 | 0.00 | 0.00 | 0.00 | 99 | 1014.1 |